createdAt,value
2017-12-15T00:00:49.934Z,5.73
2017-12-15T00:03:17.394Z,6.07
2017-12-15T00:05:44.867Z,9.03
2017-12-15T00:08:12.326Z,5.83
2017-12-15T00:10:39.806Z,5.30
2017-12-15T00:13:07.285Z,6.33
2017-12-15T00:15:34.780Z,5.00
2017-12-15T00:18:02.265Z,6.97
2017-12-15T00:20:29.725Z,5.80
2017-12-15T00:22:57.205Z,5.13
2017-12-15T00:25:24.709Z,6.93
2017-12-15T00:27:52.979Z,5.57
2017-12-15T00:30:20.443Z,8.43
2017-12-15T00:32:47.936Z,6.07
2017-12-15T00:35:15.416Z,6.33
2017-12-15T00:37:43.246Z,4.17
2017-12-15T00:40:10.724Z,3.67
2017-12-15T00:42:38.227Z,3.50
2017-12-15T00:45:05.724Z,6.13
2017-12-15T00:47:33.197Z,6.83
2017-12-15T00:50:00.657Z,3.77
2017-12-15T00:52:28.153Z,4.20
2017-12-15T00:54:55.635Z,4.00
2017-12-15T00:57:23.134Z,6.03
2017-12-15T00:59:50.601Z,7.20
2017-12-15T01:02:18.059Z,5.03
2017-12-15T01:04:45.557Z,6.07
2017-12-15T01:07:13.038Z,5.83
2017-12-15T01:09:40.506Z,6.40
2017-12-15T01:12:07.961Z,6.00
2017-12-15T01:14:35.433Z,8.10
2017-12-15T01:17:03.512Z,4.60
2017-12-15T01:19:31.144Z,6.07
2017-12-15T01:21:58.648Z,4.00
2017-12-15T01:24:26.141Z,4.30
2017-12-15T01:26:53.642Z,8.43
2017-12-15T01:29:21.135Z,5.03
2017-12-15T01:31:48.622Z,6.23
2017-12-15T01:34:16.116Z,5.13
2017-12-15T01:36:43.604Z,4.73
2017-12-15T01:39:11.122Z,6.40
2017-12-15T01:41:38.638Z,3.23
2017-12-15T01:44:06.143Z,7.47
2017-12-15T01:46:33.599Z,3.90
2017-12-15T01:49:01.058Z,7.77
2017-12-15T01:51:28.553Z,4.77
2017-12-15T01:53:56.040Z,6.90
2017-12-15T01:56:23.534Z,4.40
2017-12-15T01:58:50.997Z,5.43
2017-12-15T02:01:18.481Z,6.40
2017-12-15T02:03:45.941Z,6.67
2017-12-15T02:06:13.398Z,7.33
2017-12-15T02:08:40.889Z,4.87
2017-12-15T02:11:08.393Z,3.40
2017-12-15T02:13:35.874Z,6.23
2017-12-15T02:16:03.330Z,6.47
2017-12-15T02:18:30.811Z,6.77
2017-12-15T02:20:58.295Z,8.47
2017-12-15T02:23:25.766Z,6.70
2017-12-15T02:25:53.254Z,5.03
2017-12-15T02:28:20.749Z,11.73
2017-12-15T02:30:48.218Z,6.80
2017-12-15T02:33:15.737Z,8.57
2017-12-15T02:35:43.228Z,8.63
2017-12-15T02:38:10.713Z,6.90
2017-12-15T02:40:38.206Z,11.70
2017-12-15T02:43:05.686Z,8.57
2017-12-15T02:45:33.192Z,11.37
2017-12-15T02:48:00.679Z,5.70
2017-12-15T02:50:28.154Z,3.50
2017-12-15T02:52:55.614Z,5.17
2017-12-15T02:55:23.082Z,3.80
2017-12-15T02:57:49.840Z,8.57
2017-12-15T03:00:17.785Z,6.33
2017-12-15T03:02:45.270Z,3.53
2017-12-15T03:05:12.730Z,4.27
2017-12-15T03:07:40.229Z,4.53
2017-12-15T03:10:07.722Z,3.93
2017-12-15T03:12:35.220Z,6.83
2017-12-15T03:15:02.697Z,6.73
2017-12-15T03:17:30.158Z,3.27
2017-12-15T03:19:57.654Z,5.33
2017-12-15T03:22:25.114Z,4.57
2017-12-15T03:24:52.608Z,7.80
2017-12-15T03:27:20.100Z,5.87
2017-12-15T03:29:47.582Z,7.23
2017-12-15T03:32:15.077Z,7.90
2017-12-15T03:34:42.555Z,5.97
2017-12-15T03:37:10.069Z,8.03
2017-12-15T03:39:37.546Z,11.10
2017-12-15T03:42:05.028Z,5.03
2017-12-15T03:44:32.501Z,6.43
2017-12-15T03:46:59.950Z,6.63
2017-12-15T03:49:27.887Z,7.73
2017-12-15T03:51:55.398Z,6.93
2017-12-15T03:54:22.894Z,7.50
2017-12-15T03:56:50.393Z,6.80
2017-12-15T03:59:17.882Z,10.40
2017-12-15T04:01:45.376Z,11.80
2017-12-15T04:04:12.853Z,9.73
2017-12-15T04:06:40.358Z,8.90
2017-12-15T04:09:07.846Z,10.07
2017-12-15T04:11:35.336Z,5.87
2017-12-15T04:14:02.829Z,6.27
2017-12-15T04:16:30.356Z,7.10
2017-12-15T04:18:57.844Z,7.40
2017-12-15T04:21:25.333Z,5.30
2017-12-15T04:23:52.817Z,6.47
2017-12-15T04:26:20.274Z,8.27
2017-12-15T04:28:47.751Z,6.73
2017-12-15T04:31:15.219Z,8.77
2017-12-15T04:33:42.716Z,7.57
2017-12-15T04:36:10.184Z,11.63
2017-12-15T04:38:37.676Z,9.63
2017-12-15T04:41:05.159Z,8.33
2017-12-15T04:43:32.684Z,10.97
2017-12-15T04:46:00.176Z,14.93
2017-12-15T04:48:27.672Z,14.97
2017-12-15T04:50:55.180Z,13.13
2017-12-15T04:53:22.660Z,12.83
2017-12-15T04:55:50.157Z,12.57
2017-12-15T04:58:17.672Z,11.80
2017-12-15T05:00:45.173Z,15.53
2017-12-15T05:03:12.665Z,14.93
2017-12-15T05:05:40.161Z,10.47
2017-12-15T05:08:07.650Z,13.80
2017-12-15T05:10:35.110Z,12.40
2017-12-15T05:13:02.580Z,18.27
2017-12-15T05:15:30.065Z,15.30
2017-12-15T05:17:57.538Z,13.47
2017-12-15T05:20:25.038Z,14.40
2017-12-15T05:22:52.541Z,13.50
2017-12-15T05:25:20.042Z,13.93
2017-12-15T05:27:48.055Z,12.17
2017-12-15T05:30:15.880Z,13.63
2017-12-15T05:32:43.594Z,14.33
2017-12-15T05:35:11.082Z,11.77
2017-12-15T05:37:38.582Z,11.43
2017-12-15T05:40:06.084Z,14.73
2017-12-15T05:42:33.587Z,17.50
2017-12-15T05:45:01.080Z,16.73
2017-12-15T05:47:29.235Z,14.53
2017-12-15T05:49:56.725Z,18.13
2017-12-15T05:52:24.294Z,16.53
2017-12-15T05:54:51.794Z,18.10
2017-12-15T05:57:19.290Z,17.37
2017-12-15T05:59:46.800Z,15.90
2017-12-15T06:02:14.293Z,17.83
2017-12-15T06:04:41.758Z,14.33
2017-12-15T06:07:09.271Z,18.30
2017-12-15T06:09:36.784Z,18.27
2017-12-15T06:12:04.258Z,16.27
2017-12-15T06:14:31.741Z,15.00
2017-12-15T06:16:59.264Z,15.43
2017-12-15T06:19:26.758Z,13.27
2017-12-15T06:21:54.522Z,15.27
2017-12-15T06:24:22.054Z,13.77
2017-12-15T06:26:49.538Z,15.43
2017-12-15T06:29:17.036Z,17.27
2017-12-15T06:31:44.526Z,16.20
2017-12-15T06:34:12.023Z,15.80
2017-12-15T06:36:39.516Z,16.40
2017-12-15T06:39:07.002Z,16.33
2017-12-15T06:41:34.516Z,19.30
2017-12-15T06:44:02.022Z,20.43
2017-12-15T06:46:29.512Z,20.13
2017-12-15T06:48:57.180Z,23.70
2017-12-15T06:51:24.673Z,22.33
2017-12-15T06:53:52.169Z,25.93
2017-12-15T06:56:19.676Z,23.93
2017-12-15T06:58:47.196Z,24.27
2017-12-15T07:01:14.674Z,25.57
2017-12-15T07:03:42.200Z,23.73
2017-12-15T07:06:09.709Z,26.93
2017-12-15T07:08:37.228Z,22.93
2017-12-15T07:11:05.778Z,28.03
2017-12-15T07:13:33.261Z,21.80
2017-12-15T07:16:00.757Z,26.43
2017-12-15T07:18:28.244Z,26.07
2017-12-15T07:20:55.742Z,23.23
2017-12-15T07:23:23.436Z,25.70
2017-12-15T07:25:50.928Z,25.80
2017-12-15T07:28:18.428Z,28.60
2017-12-15T07:30:46.417Z,26.43
2017-12-15T07:33:13.911Z,30.87
2017-12-15T07:35:41.419Z,24.93
2017-12-15T07:38:08.900Z,26.00
2017-12-15T07:40:36.388Z,25.10
2017-12-15T07:43:04.014Z,33.73
2017-12-15T07:45:31.596Z,30.90
2017-12-15T07:47:59.102Z,29.87
2017-12-15T07:50:26.617Z,28.20
2017-12-15T07:52:54.120Z,29.93
2017-12-15T07:55:21.615Z,29.63
2017-12-15T07:57:49.122Z,37.40
2017-12-15T08:00:16.616Z,30.93
2017-12-15T08:02:44.087Z,35.43
2017-12-15T08:05:11.574Z,34.50
2017-12-15T08:07:39.097Z,36.27
2017-12-15T08:10:06.609Z,37.70
2017-12-15T08:12:34.109Z,34.63
2017-12-15T08:15:01.595Z,38.77
2017-12-15T08:17:29.094Z,34.93
2017-12-15T08:19:56.600Z,33.47
2017-12-15T08:22:24.121Z,35.90
2017-12-15T08:24:51.608Z,37.63
2017-12-15T08:27:19.103Z,41.90
2017-12-15T08:29:46.596Z,44.70
2017-12-15T08:32:14.078Z,37.77
2017-12-15T08:34:41.610Z,38.97
2017-12-15T08:37:09.102Z,50.17
2017-12-15T08:39:36.587Z,39.47
2017-12-15T08:42:04.067Z,37.10
2017-12-15T08:44:31.686Z,34.83
2017-12-15T08:46:59.141Z,36.87
2017-12-15T08:49:26.628Z,36.33
2017-12-15T08:51:54.129Z,31.93
2017-12-15T08:54:21.712Z,30.73
2017-12-15T08:56:49.217Z,24.70
2017-12-15T08:59:16.712Z,28.67
2017-12-15T09:01:44.228Z,27.37
2017-12-15T09:04:17.315Z,23.37
2017-12-15T09:06:46.671Z,23.77
2017-12-15T09:09:14.152Z,24.03
2017-12-15T09:11:41.741Z,25.87
2017-12-15T09:14:09.229Z,26.50
2017-12-15T09:16:36.698Z,29.93
2017-12-15T09:19:04.193Z,26.53
2017-12-15T09:21:31.676Z,23.80
2017-12-15T09:23:59.177Z,26.03
2017-12-15T09:26:26.680Z,25.50
2017-12-15T09:28:54.226Z,28.47
2017-12-15T09:31:21.721Z,26.70
2017-12-15T09:33:49.205Z,28.80
2017-12-15T09:36:16.706Z,26.20
2017-12-15T09:38:44.197Z,27.03
2017-12-15T09:41:11.711Z,25.80
2017-12-15T09:43:39.196Z,30.50
2017-12-15T09:46:06.678Z,31.33
2017-12-15T09:48:34.198Z,26.97
2017-12-15T09:51:01.686Z,29.20
2017-12-15T09:53:29.200Z,30.53
2017-12-15T09:55:56.703Z,31.67
2017-12-15T09:58:24.194Z,30.73
2017-12-15T10:00:51.810Z,27.77
2017-12-15T10:03:19.300Z,26.90
2017-12-15T10:05:46.820Z,25.67
2017-12-15T10:08:14.304Z,21.23
2017-12-15T10:10:41.978Z,23.37
2017-12-15T10:13:09.477Z,26.27
2017-12-15T10:15:36.970Z,24.40
2017-12-15T10:18:04.442Z,26.70
2017-12-15T10:20:31.952Z,28.23
2017-12-15T10:22:59.549Z,26.37
2017-12-15T10:25:27.046Z,24.97
2017-12-15T10:27:54.552Z,27.97
2017-12-15T10:30:22.049Z,24.10
2017-12-15T10:32:49.520Z,31.47
2017-12-15T10:35:17.017Z,24.37
2017-12-15T10:37:44.505Z,27.07
2017-12-15T10:40:12.016Z,31.80
2017-12-15T10:42:39.489Z,26.70
2017-12-15T10:45:06.982Z,27.30
2017-12-15T10:47:34.478Z,29.73
2017-12-15T10:50:02.006Z,31.53
2017-12-15T10:52:29.494Z,28.03
2017-12-15T10:54:56.976Z,28.37
2017-12-15T10:57:24.476Z,32.67
2017-12-15T10:59:52.037Z,27.10
2017-12-15T11:02:19.534Z,24.57
2017-12-15T11:04:47.017Z,30.07
2017-12-15T11:07:14.508Z,26.07
2017-12-15T11:09:42.007Z,28.00
2017-12-15T11:12:09.481Z,28.37
2017-12-15T11:14:36.990Z,33.67
2017-12-15T11:17:04.456Z,30.67
2017-12-15T11:19:31.941Z,32.70
2017-12-15T11:21:59.470Z,29.37
2017-12-15T11:24:26.951Z,34.80
2017-12-15T11:26:54.456Z,33.70
2017-12-15T11:29:21.953Z,30.03
2017-12-15T11:31:49.440Z,30.97
2017-12-15T11:34:16.936Z,39.60
2017-12-15T11:36:44.464Z,33.23
2017-12-15T11:39:11.961Z,41.77
2017-12-15T11:41:39.469Z,34.20
2017-12-15T11:44:06.980Z,36.77
2017-12-15T11:46:34.475Z,34.53
2017-12-15T11:49:01.964Z,35.13
2017-12-15T11:51:29.447Z,34.20
2017-12-15T11:53:56.942Z,30.00
2017-12-15T11:56:24.518Z,31.40
2017-12-15T11:58:51.985Z,35.37
2017-12-15T12:01:19.492Z,30.40
2017-12-15T12:03:46.985Z,28.30
2017-12-15T12:06:14.505Z,25.33
2017-12-15T12:08:42.087Z,29.30
2017-12-15T12:11:09.549Z,31.77
2017-12-15T12:13:37.024Z,23.67
2017-12-15T12:16:04.503Z,17.37
2017-12-15T12:18:31.981Z,20.23
2017-12-15T12:20:59.472Z,22.13
2017-12-15T12:23:26.946Z,24.03
2017-12-15T12:25:54.425Z,21.83
2017-12-15T12:28:21.903Z,27.17
2017-12-15T12:30:49.394Z,20.73
2017-12-15T12:33:16.852Z,19.23
2017-12-15T12:35:44.522Z,19.97
2017-12-15T12:38:12.143Z,21.87
2017-12-15T12:40:39.616Z,24.03
2017-12-15T12:43:07.105Z,20.20
2017-12-15T12:45:34.632Z,17.30
2017-12-15T12:48:02.110Z,24.17
2017-12-15T12:50:29.608Z,21.20
2017-12-15T12:52:59.322Z,25.63
2017-12-15T12:55:26.793Z,21.77
2017-12-15T12:57:55.134Z,18.80
2017-12-15T13:00:22.591Z,16.00
2017-12-15T13:02:50.090Z,16.13
2017-12-15T13:05:17.558Z,20.80
2017-12-15T13:07:45.038Z,15.03
2017-12-15T13:10:12.531Z,14.37
2017-12-15T13:12:40.128Z,19.93
2017-12-15T13:15:07.629Z,17.70
2017-12-15T13:17:35.105Z,20.90
2017-12-15T13:20:02.610Z,17.27
2017-12-15T13:22:30.218Z,11.60
2017-12-15T13:24:57.694Z,18.47
2017-12-15T13:27:25.217Z,13.97
2017-12-15T13:29:52.696Z,12.83
2017-12-15T13:32:20.214Z,17.23
2017-12-15T13:34:47.772Z,14.43
2017-12-15T13:37:15.243Z,14.30
2017-12-15T13:39:42.882Z,15.17
2017-12-15T13:42:12.256Z,13.93
2017-12-15T13:44:39.755Z,14.73
2017-12-15T13:47:07.248Z,11.47
2017-12-15T13:49:34.713Z,9.27
2017-12-15T13:52:02.194Z,13.60
2017-12-15T13:54:29.722Z,11.70
2017-12-15T13:56:57.254Z,13.30
2017-12-15T13:59:24.736Z,8.77
2017-12-15T14:01:53.129Z,11.23
2017-12-15T14:04:20.641Z,8.97
2017-12-15T14:06:48.131Z,15.67
2017-12-15T14:09:16.310Z,10.80
2017-12-15T14:11:43.790Z,11.90
2017-12-15T14:14:11.269Z,12.03
2017-12-15T14:16:38.793Z,13.43
2017-12-15T14:19:06.278Z,12.93
2017-12-15T14:21:33.766Z,9.67
2017-12-15T14:24:01.253Z,8.73
2017-12-15T14:26:28.782Z,12.83
2017-12-15T14:28:56.272Z,12.23
2017-12-15T14:31:23.762Z,11.43
2017-12-15T14:33:52.233Z,15.50
2017-12-15T14:36:19.721Z,16.73
2017-12-15T14:38:48.671Z,14.57
2017-12-15T14:41:16.239Z,15.43
2017-12-15T14:43:43.685Z,13.47
2017-12-15T14:46:11.529Z,22.37
2017-12-15T14:48:43.876Z,22.03
2017-12-15T14:51:06.546Z,15.23
2017-12-15T14:53:34.089Z,13.77
2017-12-15T14:56:01.569Z,16.07
2017-12-15T14:58:33.733Z,14.63
2017-12-15T15:01:01.241Z,17.00
2017-12-15T15:03:29.134Z,14.80
2017-12-15T15:05:56.617Z,21.43
2017-12-15T15:08:24.135Z,21.03
2017-12-15T15:10:51.652Z,17.80
2017-12-15T15:13:19.125Z,18.47
2017-12-15T15:15:46.647Z,15.90
2017-12-15T15:18:14.347Z,13.93
2017-12-15T15:33:36.873Z,12.03
2017-12-15T15:36:04.413Z,18.03
2017-12-15T15:38:31.951Z,23.87
2017-12-15T15:40:59.500Z,11.03
2017-12-15T15:43:27.011Z,15.83
2017-12-15T15:45:54.530Z,15.50
2017-12-15T15:48:22.004Z,19.17
2017-12-15T15:50:49.478Z,19.73
2017-12-15T15:53:17.520Z,17.33
2017-12-15T15:55:45.374Z,16.30
2017-12-15T15:58:12.836Z,19.73
2017-12-15T16:00:40.395Z,16.33
2017-12-15T16:03:08.162Z,16.13
2017-12-15T16:05:35.689Z,19.27
2017-12-15T16:08:03.241Z,14.87
2017-12-15T16:10:31.010Z,13.43
2017-12-15T16:12:58.774Z,17.20
2017-12-15T16:15:26.333Z,12.63
2017-12-15T16:17:53.914Z,20.53
2017-12-15T16:20:21.482Z,18.03
2017-12-15T16:22:48.970Z,16.27
2017-12-15T16:25:16.473Z,18.33
2017-12-15T16:27:44.164Z,28.53
2017-12-15T16:30:11.986Z,18.30
2017-12-15T16:32:39.701Z,26.47
2017-12-15T16:35:07.474Z,28.20
2017-12-15T16:37:34.984Z,21.07
2017-12-15T16:40:02.459Z,18.83
2017-12-15T16:42:30.043Z,16.70
2017-12-15T16:44:57.550Z,18.57
2017-12-15T16:47:25.874Z,18.00
2017-12-15T16:49:53.367Z,21.87
2017-12-15T16:52:20.852Z,19.43
2017-12-15T16:54:48.330Z,16.50
2017-12-15T16:57:15.805Z,18.33
2017-12-15T16:59:43.305Z,18.67
2017-12-15T17:02:10.788Z,24.67
2017-12-15T17:04:38.276Z,22.00
2017-12-15T17:07:05.787Z,17.97
2017-12-15T17:09:33.273Z,12.47
2017-12-15T17:12:00.757Z,12.57
2017-12-15T17:14:28.247Z,16.33
2017-12-15T17:16:55.737Z,21.33
2017-12-15T17:19:23.269Z,21.13
2017-12-15T17:21:50.828Z,20.93
2017-12-15T17:24:18.318Z,19.63
2017-12-15T17:26:45.804Z,21.53
2017-12-15T17:29:13.666Z,25.70
2017-12-15T17:31:41.161Z,27.13
2017-12-15T17:34:08.664Z,23.03
2017-12-15T17:36:36.152Z,24.80
2017-12-15T17:39:03.635Z,22.90
2017-12-15T17:41:31.120Z,28.40
2017-12-15T17:43:58.606Z,30.27
2017-12-15T17:46:26.104Z,19.47
2017-12-15T17:48:54.260Z,19.07
2017-12-15T17:51:21.737Z,20.33
2017-12-15T17:53:49.224Z,25.50
2017-12-15T17:56:16.715Z,30.37
2017-12-15T17:58:44.201Z,23.93
2017-12-15T18:01:11.686Z,20.83
2017-12-15T18:03:39.166Z,25.73
2017-12-15T18:06:06.650Z,23.77
2017-12-15T18:08:34.110Z,24.23
2017-12-15T18:11:01.599Z,24.63
2017-12-15T18:13:29.077Z,28.27
2017-12-15T18:15:56.546Z,23.70
2017-12-15T18:18:24.076Z,25.23
2017-12-15T18:20:51.566Z,22.37
2017-12-15T18:23:19.058Z,22.47
2017-12-15T18:25:46.552Z,26.83
2017-12-15T18:28:14.027Z,23.03
2017-12-15T18:30:41.501Z,20.53
2017-12-15T18:33:08.999Z,23.47
2017-12-15T18:35:36.492Z,23.03
2017-12-15T18:38:03.973Z,31.40
2017-12-15T18:40:31.554Z,30.33
2017-12-15T18:42:59.902Z,26.17
2017-12-15T18:45:27.392Z,25.60
2017-12-15T18:47:54.890Z,25.07
2017-12-15T18:50:22.398Z,22.50
2017-12-15T18:52:49.884Z,25.27
2017-12-15T18:55:17.359Z,23.77
2017-12-15T18:57:44.860Z,24.97
2017-12-15T19:00:12.358Z,24.13
2017-12-15T19:02:39.846Z,23.53
2017-12-15T19:05:07.342Z,34.77
2017-12-15T19:07:34.837Z,25.90
2017-12-15T19:10:02.306Z,25.50
2017-12-15T19:12:29.818Z,24.73
2017-12-15T19:14:57.268Z,17.93
2017-12-15T19:17:24.758Z,23.30
2017-12-15T19:19:52.236Z,26.23
2017-12-15T19:22:19.718Z,20.13
2017-12-15T19:24:47.675Z,20.00
2017-12-15T19:27:15.229Z,23.00
2017-12-15T19:29:42.794Z,17.47
2017-12-15T19:32:10.301Z,18.90
2017-12-15T19:34:37.809Z,27.47
2017-12-15T19:37:05.291Z,19.97
2017-12-15T19:39:32.867Z,24.87
2017-12-15T19:42:00.396Z,27.27
2017-12-15T19:44:27.932Z,25.10
2017-12-15T19:46:55.509Z,24.53
2017-12-15T19:49:23.011Z,27.07
2017-12-15T19:51:50.517Z,30.80
2017-12-15T19:54:18.008Z,21.07
2017-12-15T19:56:46.361Z,20.53
2017-12-15T19:59:14.311Z,24.80
2017-12-15T20:01:53.031Z,22.90
2017-12-15T20:04:20.510Z,19.50
2017-12-15T20:06:48.086Z,24.20
2017-12-15T20:09:15.593Z,24.37
2017-12-15T20:11:43.065Z,22.87
2017-12-15T20:14:10.570Z,22.90
2017-12-15T20:16:38.091Z,22.27
2017-12-15T20:19:07.563Z,25.47
2017-12-15T20:21:35.045Z,25.13
2017-12-15T20:24:02.606Z,24.57
2017-12-15T20:26:30.078Z,20.70
2017-12-15T20:28:57.949Z,23.80
2017-12-15T20:31:25.838Z,25.63
2017-12-15T20:33:53.736Z,27.53
2017-12-15T20:36:21.567Z,22.03
2017-12-15T20:38:49.337Z,27.00
2017-12-15T20:41:17.081Z,25.23
2017-12-15T20:43:44.891Z,36.73
2017-12-15T20:46:12.394Z,30.73
2017-12-15T20:48:39.870Z,31.87
2017-12-15T20:51:07.342Z,32.60
2017-12-15T20:53:34.942Z,30.70
2017-12-15T20:56:02.377Z,27.57
2017-12-15T20:58:29.880Z,26.67
2017-12-15T21:00:57.366Z,29.00
2017-12-15T21:03:24.852Z,25.33
2017-12-15T21:05:52.381Z,24.63
2017-12-15T21:08:20.693Z,27.17
2017-12-15T21:10:48.169Z,26.03
2017-12-15T21:13:15.668Z,26.90
2017-12-15T21:15:43.165Z,28.63
2017-12-15T21:18:10.724Z,24.97
2017-12-15T21:20:39.006Z,32.40
2017-12-15T21:23:06.497Z,32.47
2017-12-15T21:25:33.969Z,25.40
2017-12-15T21:28:02.173Z,30.27
2017-12-15T21:30:29.694Z,28.50
2017-12-15T21:32:57.216Z,33.67
2017-12-15T21:35:24.694Z,29.90
2017-12-15T21:37:52.192Z,32.83
2017-12-15T21:40:19.692Z,29.97
2017-12-15T21:42:47.214Z,32.30
2017-12-15T21:45:14.718Z,28.13
2017-12-15T21:47:42.234Z,29.40
2017-12-15T21:50:09.737Z,29.50
2017-12-15T21:52:37.276Z,28.30
2017-12-15T21:55:04.766Z,30.47
2017-12-15T21:57:32.312Z,33.80
2017-12-15T21:59:59.802Z,27.90
2017-12-15T22:02:27.286Z,35.53
2017-12-15T22:04:54.783Z,29.53
2017-12-15T22:07:26.142Z,26.33
2017-12-15T22:09:53.897Z,35.70
2017-12-15T22:12:21.402Z,32.77
2017-12-15T22:14:48.906Z,29.30
2017-12-15T22:17:16.426Z,30.83
2017-12-15T22:19:43.920Z,31.27
2017-12-15T22:22:11.448Z,28.23
2017-12-15T22:24:38.980Z,30.70
2017-12-15T22:27:06.488Z,30.57
2017-12-15T22:29:34.063Z,32.47
2017-12-15T22:32:01.566Z,33.33
2017-12-15T22:34:29.133Z,30.10
2017-12-15T22:36:56.642Z,31.30
2017-12-15T22:39:24.142Z,33.03
2017-12-15T22:41:51.673Z,35.03
2017-12-15T22:44:19.158Z,29.63
2017-12-15T22:46:46.671Z,34.23
2017-12-15T22:49:14.176Z,27.60
2017-12-15T22:51:41.650Z,30.80
2017-12-15T22:54:09.198Z,28.17
2017-12-15T22:56:36.705Z,30.17
2017-12-15T22:59:04.217Z,26.67
2017-12-15T23:01:31.711Z,34.90
2017-12-15T23:03:59.262Z,32.43
2017-12-15T23:06:26.786Z,26.90
2017-12-15T23:08:54.282Z,26.97
2017-12-15T23:11:21.766Z,26.63
2017-12-15T23:13:50.059Z,25.53
2017-12-15T23:16:17.787Z,26.30
2017-12-15T23:18:45.284Z,32.50
2017-12-15T23:21:12.764Z,24.57
2017-12-15T23:23:40.226Z,26.33
2017-12-15T23:26:07.733Z,32.17
2017-12-15T23:28:35.220Z,25.03
2017-12-15T23:31:02.700Z,29.87
2017-12-15T23:33:30.178Z,26.40
2017-12-15T23:35:57.708Z,28.90
2017-12-15T23:38:25.214Z,24.43
2017-12-15T23:40:52.709Z,25.27
2017-12-15T23:43:20.209Z,26.83
2017-12-15T23:45:47.732Z,33.63
2017-12-15T23:48:15.239Z,30.73
2017-12-15T23:50:42.745Z,27.87
2017-12-15T23:53:10.259Z,27.00
2017-12-15T23:55:49.551Z,25.10
2017-12-15T23:58:17.027Z,28.13
